Pagina principală
METAR-TAF:

METAR-TAF

Aeroporturi :

Wood County Airport

Mineola-Quitman, Texas, Statele Unite ale Americii

Latitudine: 32-44-31N, longitudine: 095-29-47W, elevație: 132 m

Observații meteo curente

Raportul a fost făcut în urmă cu 23 de minute, la 22:35 UTC
Vânt 7 kt de la Sud/Sud-vest, variabil între Sud și Vest/Sud-vest
Temperatură 34°C
Umiditate 47%
Presiune 1015 hPa
Vizibilitate: 16.1 km
Nori împrăștiați la o înălțime de 5000 picior

METAR: KJDD 222235Z AUTO 20007KT 170V240 10SM SCT050 34/21 A2998 RMK AO2

Ora: 17:58 (22:58 UTC)


TAF: lipsă

Observații și prognoze meteo pentru peste 4.000 de aeroporturi (rapoarte METAR și TAF).

Stațiile disponibile sunt reprezentate pe hartă prin puncte galbene și roșii.

Țineți indicatorul mouse-ului pe punctul dorit pentru a vedea denumirea stației.

Apoi, faceți clic pentru a vedea observațiile și prognozele meteorologice.

Pentru a schimba harta: Pentru mărire, faceți clic pe butoanele verzi cu cruce neagră; pentru micșorare, pe butonul verde cu o liniuță; pentru hărți învecinate, pe săgețile verzi.


METAR-TAF: